หน้าหลัก
METAR-TAF:

METAR-TAF

ท่าอากาศยาน :

ท่าอากาศยานนานาชาติกลาสโกว์

กลาสโกว์, สกอตแลนด์

ละติจูด: 55-52N, ลองจิจูด: 004-26W, ความสูง: 8 ม.

การสังเกตสภาพอากาศปัจจุบัน

รายงานได้ทำขึ้นเมื่อ 41 นาทีที่แล้ว ณ เวลา 00:50 UTC
ลม 8 นอตจากตะวันออก/ตะวันออกเฉียงเหนือ
อุณหภูมิ 11°C
ความชื้น 87%
ความกดอากาศ 1021 hPa
ทัศนวิสัย 10 กม. หรือมากกว่า
มีเมฆน้อยที่ความสูง 3200 ฟุต

METAR: EGPF 190050Z AUTO 07008KT 9999 FEW032 11/09 Q1021

เวลา: 02:31 (01:31 UTC)

การพยากรณ์

รายงานได้ทำขึ้นเมื่อ 2 ชั่วโมงและ 35 นาทีที่แล้ว ณ เวลา 22:56 UTC
การพยากรณ์มีผลตั้งแต่วันที่ 19 ณ เวลา 00 UTC จนถึงวันที่ 19 ณ เวลา 24 UTC
ลม 8 นอตจากตะวันออก/ตะวันออกเฉียงเหนือ
ทัศนวิสัย 10 กม. หรือมากกว่า
มีเมฆกระจายเป็นบางส่วนที่ความสูง 2500 ฟุต
ความน่าจะเป็น 30% :
ชั่วคราว
ตั้งแต่วันที่ 19 ณ เวลา 00 UTC จนถึงวันที่ 19 ณ เวลา 09 UTC
มีเมฆเป็นส่วนมากเว้นเป็นระยะที่ความสูง 1400 ฟุต
กำลังกลายเป็น
ตั้งแต่วันที่ 19 ณ เวลา 09 UTC จนถึงวันที่ 19 ณ เวลา 12 UTC
ลม 10 นอตจากตะวันตก

TAF: EGPF 182256Z 1900/1924 07008KT 9999 SCT025 PROB30 TEMPO 1900/1909 BKN014 BECMG 1909/1912 26010KT

สังเกตการณ์สภาพอากาศและพยากรณ์อากาศของสนามบินมากกว่า 4000 แห่ง (รายงาน METAR และ TAF).

สถานีที่ดูได้จะแสดงไว้ด้วยจุดสีเหลืองและสีแดงบนแผนที่.

เลื่อนเมาส์ไปเหนือจุดเพื่อดูชื่อสถานี.

แล้วคลิกเพื่อดูสังเกตการณ์และการพยากรณ์สภาพอากาศ.

ในการเปลี่ยนแผนที่: คลิกที่ปุ่มสีเขียวที่มีกากบาทสีดำเพื่อซูมเข้า; ที่ปุ่มสีเขียวที่มีขีดเพื่อซูมออก; หรือที่ลูกศรสีเขียวเพื่อไปยังแผนที่ที่อยู่ติดกัน.


METAR-TAF: